createdAt,value
2019-01-04T00:02:08.116Z,3.28
2019-01-04T00:22:17.653Z,3.01
2019-01-04T00:42:27.124Z,3.25
2019-01-04T01:02:36.596Z,2.54
2019-01-04T01:22:46.183Z,2.18
2019-01-04T01:42:55.716Z,2.08
2019-01-04T02:03:07.600Z,2.66
2019-01-04T02:23:09.412Z,3.11
2019-01-04T02:43:09.007Z,3.77
2019-01-04T03:03:18.473Z,4.33
2019-01-04T03:23:30.285Z,4.47
2019-01-04T03:43:29.765Z,4.78
2019-01-04T04:03:39.417Z,4.51
2019-01-04T04:23:48.885Z,5.21
2019-01-04T04:43:58.407Z,5.47
2019-01-04T05:04:07.946Z,4.91
2019-01-04T05:24:17.518Z,4.57
2019-01-04T05:44:27.053Z,4.55
2019-01-04T06:04:36.627Z,4.56
2019-01-04T06:24:46.074Z,4.43
2019-01-04T06:44:55.636Z,6.22
2019-01-04T07:05:05.153Z,4.54
2019-01-04T07:25:17.076Z,4.84
2019-01-04T07:45:16.604Z,4.66
2019-01-04T08:05:25.950Z,4.97
2019-01-04T08:25:35.440Z,4.58
2019-01-04T08:45:45.060Z,4.19
2019-01-04T09:05:54.673Z,4.62
2019-01-04T09:26:04.156Z,5.14
2019-01-04T09:46:16.004Z,5.02
2019-01-04T10:06:15.517Z,4.82
2019-01-04T10:26:25.068Z,4.20
2019-01-04T10:46:34.578Z,4.92
2019-01-04T11:06:46.309Z,5.89
2019-01-04T11:26:46.397Z,8.38
2019-01-04T11:46:45.996Z,7.14
2019-01-04T12:06:55.545Z,5.77
2019-01-04T12:27:04.989Z,5.71
2019-01-04T12:47:14.858Z,6.02
2019-01-04T13:07:24.341Z,5.68
2019-01-04T13:27:33.960Z,6.25
2019-01-04T13:47:47.444Z,5.37
2019-01-04T14:07:47.098Z,5.65
2019-01-04T14:27:56.592Z,4.52
2019-01-04T14:48:11.666Z,5.43
2019-01-04T15:08:11.256Z,4.53
2019-01-04T15:28:23.210Z,5.41
2019-01-04T15:48:28.389Z,3.64
2019-01-04T16:08:33.122Z,4.03
2019-01-04T16:28:38.811Z,4.20
2019-01-04T16:48:45.905Z,5.15
2019-01-04T17:08:50.392Z,5.66
2019-01-04T17:28:55.620Z,7.30
2019-01-04T17:48:58.224Z,6.69
2019-01-04T18:09:02.942Z,6.93
2019-01-04T18:29:08.393Z,6.12
2019-01-04T18:49:15.858Z,6.83
2019-01-04T19:09:23.524Z,7.91
2019-01-04T19:29:23.821Z,6.65
2019-01-04T19:49:38.620Z,6.58
2019-01-04T20:09:43.764Z,6.91
2019-01-04T20:29:49.335Z,5.36
2019-01-04T20:49:54.109Z,5.87
2019-01-04T21:09:53.761Z,5.43
2019-01-04T21:30:03.317Z,5.28
2019-01-04T21:50:12.734Z,4.97
2019-01-04T22:10:22.289Z,5.76
2019-01-04T22:30:31.901Z,6.03
2019-01-04T22:50:41.425Z,6.09
2019-01-04T23:10:51.899Z,7.42
2019-01-04T23:30:51.485Z,6.83
2019-01-04T23:51:03.294Z,9.56
